Impacts METAR Board
IDs:

KCVB - Castroville Muni, TX, US

Updated at: 1200 UTC 16 Jul 2019
Potential Impact None Slight Moderate High
Time 16/00Z 16/01Z 16/02Z 16/03Z 16/04Z 16/05Z 16/06Z 16/07Z 16/08Z 16/09Z 16/10Z 16/11Z 16/12Z
Temp94 92 88 86 85 83 81 80 79 77 76 77 77
Dewpt64 65 67 70 71 72 71 71 71 71 73 74 75
Altim29.89 29.88 29.90 29.92 29.94 29.96 29.97 29.97 29.97 29.97 29.98 30.00 30.01
VIS10 10 10 10 10 10 10 10 10 7 7 7 10
CIG-- -- -- -- -- -- -- -- -- -- -- 12 10
CoverCLRCLRCLRCLRCLRCLRCLRCLRCLRCLRCLROVCOVC
FltCatVFRVFRVFRVFRVFRVFRVFRVFRVFRVFRVFRMVFRMVFR
WX--------------------------
WDir14012090140150140130140130110100100100
WSpd7 3 3 4 9 7 6 5 3 4 3 5 4
WGst-- -- -- -- 14 -- -- -- -- -- -- -- --
Raw hourly METARs
KCVB 152355Z AUTO 14007KT 10SM CLR 35/18 A2989 RMK AO2 T03460176 10356 20324
KCVB 160055Z AUTO 12003KT 10SM CLR 33/18 A2988 RMK AO2 T03310183
KCVB 160155Z AUTO 09003KT 10SM CLR 31/19 A2990 RMK AO2 T03130194
KCVB 160255Z AUTO 14004KT 10SM CLR 30/21 A2992 RMK AO2 T03020213
KCVB 160355Z AUTO 15009G14KT 10SM CLR 29/22 A2994 RMK AO2 T02940217
KCVB 160455Z AUTO 14007KT 10SM CLR 28/22 A2996 RMK AO2 T02820220
KCVB 160555Z AUTO 13006KT 10SM CLR 27/22 A2997 RMK AO2 T02730218 10346 20273 403560241
KCVB 160655Z AUTO 14005KT 10SM CLR 27/22 A2997 RMK AO2 T02650215
KCVB 160755Z AUTO 13003KT 10SM CLR 26/22 A2997 RMK AO2 T02600215
KCVB 160855Z AUTO 11004KT 7SM CLR 25/22 A2997 RMK AO2 T02520216
KCVB 160955Z AUTO 10003KT 7SM CLR 25/23 A2998 RMK AO2 T02460230
KCVB 161055Z AUTO 10005KT 7SM OVC012 25/24 A3000 RMK AO2 T02490236
KCVB 161155Z AUTO 10004KT 10SM BKN010 OVC016 25/24 A3001 RMK AO2 T02510240 10273 20245